Time;durP1;ratioP1;P1;durP2;ratioP2;P2;SDS_P1;SDS_P2;PMS_P1;PMS_P2;Temp;Humidity;BMP_temperature;BMP_pressure;BME280_temperature;BME280_humidity;BME280_pressure;Samples;Min_cycle;Max_cycle;Signal;HPM_P1;HPM_P2
2023/06/24 00:02:01;;;;;;;8.93;7.20;;;17.80;99.90;;;;;;5056256;28;20492;-67
2023/06/24 00:04:27;;;;;;;12.25;6.90;;;17.80;99.90;;;;;;5074166;28;20029;-68
2023/06/24 00:06:52;;;;;;;10.98;6.65;;;17.80;99.90;;;;;;5072353;28;20523;-68
2023/06/24 00:09:18;;;;;;;9.38;7.18;;;17.70;99.90;;;;;;5073273;28;20037;-67
2023/06/24 00:11:44;;;;;;;9.25;7.10;;;17.80;99.90;;;;;;5074064;28;20043;-67
2023/06/24 00:14:10;;;;;;;11.38;7.65;;;17.70;99.90;;;;;;5073936;28;20404;-67
2023/06/24 00:16:36;;;;;;;9.30;7.88;;;17.70;99.90;;;;;;5073592;28;20041;-68
2023/06/24 00:19:02;;;;;;;10.07;7.22;;;17.70;99.90;;;;;;5073862;28;20051;-68
2023/06/24 00:21:29;;;;;;;12.55;7.82;;;17.70;99.90;;;;;;5073638;28;20032;-67
2023/06/24 00:24:01;;;;;;;13.77;8.82;;;17.70;99.90;;;;;;5073655;28;20081;-67
2023/06/24 00:26:27;;;;;;;11.18;8.23;;;17.60;99.90;;;;;;5074031;28;20043;-67
2023/06/24 00:28:52;;;;;;;11.77;7.72;;;17.60;99.90;;;;;;5073621;28;20466;-67
2023/06/24 00:31:19;;;;;;;11.00;8.38;;;17.50;99.90;;;;;;5073383;28;20416;-67
2023/06/24 00:33:45;;;;;;;10.85;8.65;;;17.50;99.90;;;;;;5073591;28;20087;-68
2023/06/24 00:36:11;;;;;;;12.02;9.30;;;17.40;99.90;;;;;;5073272;28;20072;-67
2023/06/24 00:38:37;;;;;;;12.30;10.23;;;17.30;99.90;;;;;;5073038;28;20469;-67
2023/06/24 00:41:03;;;;;;;13.45;11.55;;;17.30;99.90;;;;;;5073266;28;20119;-68
2023/06/24 00:43:29;;;;;;;16.20;10.80;;;17.30;99.90;;;;;;5073351;28;20059;-67
2023/06/24 00:45:56;;;;;;;13.73;11.10;;;17.20;99.90;;;;;;5073463;28;20520;-67
2023/06/24 00:48:22;;;;;;;15.73;11.85;;;17.30;99.90;;;;;;5073131;28;20048;-67
2023/06/24 00:50:49;;;;;;;18.45;13.13;;;17.20;99.90;;;;;;5072884;28;20500;-67
2023/06/24 00:53:15;;;;;;;18.35;12.50;;;17.10;99.90;;;;;;5071416;28;20038;-67
2023/06/24 00:55:41;;;;;;;19.83;13.38;;;17.00;99.90;;;;;;5073267;28;20040;-67
2023/06/24 00:58:07;;;;;;;17.98;13.30;;;17.00;99.90;;;;;;5072727;28;20385;-68
2023/06/24 01:00:34;;;;;;;13.40;10.68;;;17.00;99.90;;;;;;5072812;28;20040;-67
2023/06/24 01:03:00;;;;;;;18.33;12.15;;;17.00;99.90;;;;;;5072818;28;20063;-67
2023/06/24 01:05:35;;;;;;;15.57;11.90;;;17.00;99.90;;;;;;5072947;28;20158;-67
2023/06/24 01:08:01;;;;;;;17.23;12.63;;;17.00;99.90;;;;;;5072986;28;20041;-67
2023/06/24 01:10:27;;;;;;;15.32;11.77;;;17.00;99.90;;;;;;5072760;28;20205;-67
2023/06/24 01:12:53;;;;;;;15.05;10.50;;;17.00;99.90;;;;;;5072946;28;20074;-67
2023/06/24 01:15:21;;;;;;;14.57;11.05;;;17.10;99.90;;;;;;5099145;22;20475;-70
2023/06/24 01:18:24;;;;;;;14.10;11.23;;;17.00;99.90;;;;;;5091230;28;20126;-72
2023/06/24 01:20:53;;;;;;;15.43;10.63;;;17.10;99.90;;;;;;5091581;28;20066;-71
2023/06/24 01:23:32;;;;;;;19.42;12.20;;;17.00;99.90;;;;;;5092779;28;20638;-72
2023/06/24 01:26:14;;;;;;;19.08;11.90;;;17.00;99.90;;;;;;5092888;28;20377;-72
2023/06/24 01:29:20;;;;;;;16.42;11.63;;;17.00;99.90;;;;;;5092037;28;20039;-72
2023/06/24 01:31:52;;;;;;;13.93;10.02;;;16.90;99.90;;;;;;5092405;28;20043;-72
2023/06/24 01:34:42;;;;;;;13.25;9.95;;;16.90;99.90;;;;;;5092842;28;20403;-72
2023/06/24 01:37:17;;;;;;;12.40;9.27;;;16.80;99.90;;;;;;5091395;28;20078;-72
2023/06/24 01:40:11;;;;;;;13.25;9.07;;;16.80;99.90;;;;;;5090949;28;20097;-72
2023/06/24 01:42:42;;;;;;;11.32;8.20;;;16.80;99.90;;;;;;5074117;28;20048;-72
2023/06/24 01:45:12;;;;;;;12.70;8.77;;;16.80;99.90;;;;;;5092338;28;20039;-72
2023/06/24 01:47:40;;;;;;;14.10;9.35;;;16.80;99.90;;;;;;5092039;28;20047;-72
2023/06/24 01:50:10;;;;;;;15.80;10.02;;;16.70;99.90;;;;;;5091397;28;20051;-72
2023/06/24 01:52:36;;;;;;;12.55;9.15;;;16.80;99.90;;;;;;5092211;28;20040;-72
2023/06/24 01:55:06;;;;;;;11.48;8.68;;;16.70;99.90;;;;;;5090966;28;20162;-72
2023/06/24 01:57:34;;;;;;;12.40;8.65;;;16.70;99.90;;;;;;5090563;28;20044;-72
2023/06/24 02:00:00;;;;;;;12.30;9.65;;;16.70;99.90;;;;;;5091665;28;20525;-71
2023/06/24 02:02:28;;;;;;;11.50;8.45;;;16.80;99.90;;;;;;5091178;28;20040;-71
2023/06/24 02:04:55;;;;;;;13.95;8.18;;;16.60;99.90;;;;;;5074080;28;20441;-72
2023/06/24 02:07:21;;;;;;;10.35;7.82;;;16.70;99.90;;;;;;5090446;28;20039;-72
2023/06/24 02:09:47;;;;;;;8.05;6.57;;;16.70;99.90;;;;;;5090343;28;20051;-72
2023/06/24 02:12:13;;;;;;;8.75;7.00;;;16.60;99.90;;;;;;5091960;28;20077;-72
2023/06/24 02:14:40;;;;;;;9.48;6.50;;;16.50;99.90;;;;;;5090946;28;20048;-72
2023/06/24 02:17:09;;;;;;;9.75;7.55;;;16.50;99.90;;;;;;5090313;28;20047;-72
2023/06/24 02:19:36;;;;;;;9.45;7.43;;;16.60;99.90;;;;;;5091375;28;20129;-72
2023/06/24 02:22:04;;;;;;;9.38;6.82;;;16.40;99.90;;;;;;5091946;28;20092;-72
2023/06/24 02:24:30;;;;;;;10.88;7.90;;;16.40;99.90;;;;;;5090837;28;20131;-72
2023/06/24 02:26:59;;;;;;;11.65;8.57;;;16.40;99.90;;;;;;5091486;28;20068;-72
2023/06/24 02:29:27;;;;;;;12.35;8.65;;;16.50;99.90;;;;;;5090311;28;20039;-71
2023/06/24 02:31:53;;;;;;;13.25;10.30;;;16.40;99.90;;;;;;5090436;28;20036;-72
2023/06/24 02:34:20;;;;;;;16.95;10.98;;;16.30;99.90;;;;;;5090437;28;20555;-72
2023/06/24 02:36:45;;;;;;;13.60;9.80;;;16.30;99.90;;;;;;5091485;28;20098;-72
2023/06/24 02:39:11;;;;;;;15.32;10.48;;;16.40;99.90;;;;;;5091639;28;20048;-71
2023/06/24 02:41:36;;;;;;;15.70;11.65;;;16.20;99.90;;;;;;5089963;28;20040;-72
2023/06/24 02:44:02;;;;;;;16.85;12.32;;;16.30;99.90;;;;;;5090289;28;20043;-72
2023/06/24 02:46:29;;;;;;;18.75;12.32;;;16.30;99.90;;;;;;5091529;28;20028;-72
2023/06/24 02:48:57;;;;;;;16.33;11.60;;;16.20;99.90;;;;;;5089975;28;20051;-71
2023/06/24 02:51:22;;;;;;;18.13;12.23;;;16.30;99.90;;;;;;5091335;28;20040;-71
2023/06/24 02:53:50;;;;;;;18.38;11.93;;;16.20;99.90;;;;;;5091667;28;20510;-72
2023/06/24 02:56:20;;;;;;;17.15;12.80;;;16.30;99.90;;;;;;5091552;28;20092;-72
2023/06/24 02:58:47;;;;;;;16.90;12.15;;;16.30;99.90;;;;;;5090997;28;20499;-72
2023/06/24 03:01:13;;;;;;;17.15;12.38;;;16.10;99.90;;;;;;5093095;28;20119;-72
2023/06/24 03:03:40;;;;;;;18.38;12.23;;;16.30;99.90;;;;;;5095459;28;20119;-72
2023/06/24 03:06:06;;;;;;;17.45;12.05;;;16.10;99.90;;;;;;5095634;28;20040;-72
2023/06/24 03:08:32;;;;;;;19.75;12.40;;;16.10;99.90;;;;;;5095221;28;20043;-72
2023/06/24 03:10:58;;;;;;;20.10;13.43;;;16.10;99.90;;;;;;5095032;28;20043;-71
2023/06/24 03:13:24;;;;;;;17.75;12.23;;;16.20;99.90;;;;;;5095199;28;20119;-71
2023/06/24 03:15:49;;;;;;;18.52;11.55;;;16.30;99.90;;;;;;5094915;28;20119;-71
2023/06/24 03:18:16;;;;;;;20.98;12.73;;;16.30;99.90;;;;;;5095089;28;20495;-71
2023/06/24 03:20:42;;;;;;;15.07;10.73;;;16.00;99.90;;;;;;5093784;28;20044;-71
2023/06/24 03:23:08;;;;;;;17.45;12.07;;;16.20;99.90;;;;;;5093944;28;20115;-71
2023/06/24 03:25:35;;;;;;;16.05;11.63;;;16.10;99.90;;;;;;5095155;28;20032;-71
2023/06/24 03:28:03;;;;;;;17.85;11.40;;;16.20;99.90;;;;;;5094747;28;20165;-71
2023/06/24 03:30:29;;;;;;;19.50;12.05;;;16.20;99.90;;;;;;5094864;28;20075;-71
2023/06/24 03:32:55;;;;;;;17.58;12.02;;;16.10;99.90;;;;;;5094869;28;20515;-71
2023/06/24 03:35:22;;;;;;;19.45;12.88;;;16.10;99.90;;;;;;5093537;28;20036;-71
2023/06/24 03:37:48;;;;;;;19.58;12.90;;;16.00;99.90;;;;;;5093184;28;20044;-71
2023/06/24 03:40:13;;;;;;;18.70;11.82;;;16.10;99.90;;;;;;5093355;28;20128;-71
2023/06/24 03:42:39;;;;;;;18.80;12.25;;;16.00;99.90;;;;;;5094739;28;20538;-71
2023/06/24 03:45:05;;;;;;;17.80;11.30;;;15.90;99.90;;;;;;5094219;28;20047;-71
2023/06/24 03:47:31;;;;;;;19.63;13.45;;;16.00;99.90;;;;;;5093376;28;20036;-71
2023/06/24 03:49:56;;;;;;;19.45;12.95;;;16.00;99.90;;;;;;5094459;28;20858;-71
2023/06/24 03:52:22;;;;;;;17.63;12.05;;;16.10;99.90;;;;;;5094726;28;20040;-71
2023/06/24 03:54:47;;;;;;;15.95;11.43;;;16.10;99.90;;;;;;5093223;28;20043;-71
2023/06/24 03:57:13;;;;;;;16.73;10.50;;;16.10;99.90;;;;;;5093030;28;20048;-71
2023/06/24 03:59:38;;;;;;;18.15;12.43;;;16.00;99.90;;;;;;5092741;28;20046;-71
2023/06/24 04:02:08;;;;;;;13.20;10.27;;;16.10;99.90;;;;;;5093428;28;20040;-71
2023/06/24 04:04:34;;;;;;;16.58;10.57;;;16.20;99.90;;;;;;5093130;28;20040;-71
2023/06/24 04:07:00;;;;;;;14.65;10.45;;;16.20;99.90;;;;;;5075714;28;20051;-71
2023/06/24 04:09:26;;;;;;;15.73;10.35;;;16.10;99.90;;;;;;5092821;28;20040;-71
2023/06/24 04:11:51;;;;;;;17.77;11.27;;;16.20;99.90;;;;;;5093244;28;20031;-71
2023/06/24 04:14:17;;;;;;;15.10;11.10;;;16.10;99.90;;;;;;5092859;28;20134;-71
2023/06/24 04:16:42;;;;;;;15.82;11.27;;;16.10;99.90;;;;;;5093633;28;20040;-71
2023/06/24 04:19:08;;;;;;;13.38;10.13;;;16.00;99.90;;;;;;5092765;28;20396;-71
2023/06/24 04:21:33;;;;;;;13.20;10.80;;;16.00;99.90;;;;;;5093763;28;20475;-71
2023/06/24 04:23:59;;;;;;;16.63;10.25;;;16.10;99.90;;;;;;5092712;28;20040;-71
2023/06/24 04:26:24;;;;;;;13.00;10.30;;;16.20;99.90;;;;;;5093803;28;20111;-71
2023/06/24 04:28:50;;;;;;;14.63;10.93;;;16.20;99.90;;;;;;5092491;28;20614;-71
2023/06/24 04:31:16;;;;;;;13.40;9.65;;;16.20;99.90;;;;;;5093451;28;20052;-71
2023/06/24 04:33:42;;;;;;;17.45;10.43;;;16.30;99.90;;;;;;5093866;28;20040;-71
2023/06/24 04:36:07;;;;;;;13.93;9.93;;;16.40;99.90;;;;;;5093776;28;20063;-71
2023/06/24 04:38:33;;;;;;;14.93;9.75;;;16.30;99.90;;;;;;5092094;28;20075;-71
2023/06/24 04:40:59;;;;;;;16.40;9.80;;;16.50;99.90;;;;;;5091848;28;20047;-71
2023/06/24 04:43:27;;;;;;;12.45;9.45;;;16.60;99.90;;;;;;5093747;28;20028;-71
2023/06/24 04:45:54;;;;;;;14.43;9.23;;;16.60;99.90;;;;;;5093529;28;20047;-71
2023/06/24 04:48:20;;;;;;;11.65;8.70;;;16.70;99.90;;;;;;5091859;28;20040;-71
2023/06/24 04:50:46;;;;;;;11.82;8.15;;;16.90;99.90;;;;;;5092064;28;20122;-71
2023/06/24 04:53:12;;;;;;;14.93;9.48;;;17.10;99.90;;;;;;5092148;28;20051;-71
2023/06/24 04:55:38;;;;;;;14.55;8.90;;;17.20;99.90;;;;;;5091887;28;20044;-71
2023/06/24 04:58:04;;;;;;;13.55;9.05;;;17.30;99.90;;;;;;5074929;28;20044;-71
2023/06/24 05:00:29;;;;;;;12.25;8.77;;;17.60;99.90;;;;;;5091706;28;20388;-71
2023/06/24 05:02:55;;;;;;;10.52;8.82;;;17.80;99.90;;;;;;5093465;28;20040;-71
2023/06/24 05:05:20;;;;;;;13.05;9.10;;;18.00;99.90;;;;;;5093363;28;20039;-71
2023/06/24 05:07:46;;;;;;;12.95;8.93;;;18.30;99.90;;;;;;5093033;28;20595;-71
2023/06/24 05:10:11;;;;;;;11.00;8.13;;;18.40;99.90;;;;;;5092671;28;20079;-71
2023/06/24 05:12:37;;;;;;;13.13;8.65;;;18.70;99.90;;;;;;5091759;28;20046;-71
2023/06/24 05:15:03;;;;;;;11.50;8.57;;;18.90;99.90;;;;;;5092986;28;20075;-71
2023/06/24 05:17:28;;;;;;;10.40;7.70;;;19.00;99.90;;;;;;5091512;28;20560;-71
2023/06/24 05:19:54;;;;;;;13.57;8.23;;;19.30;99.90;;;;;;5091268;28;20036;-71
2023/06/24 05:22:19;;;;;;;13.10;8.45;;;19.50;99.90;;;;;;5091545;28;20411;-71
2023/06/24 05:24:45;;;;;;;11.90;7.63;;;19.80;99.90;;;;;;5092634;28;20356;-72
2023/06/24 05:27:11;;;;;;;9.65;7.90;;;20.00;99.90;;;;;;5091105;28;20115;-72
2023/06/24 05:29:36;;;;;;;11.43;8.02;;;20.30;99.90;;;;;;5091140;28;20028;-72
2023/06/24 05:32:03;;;;;;;10.38;7.82;;;20.20;99.90;;;;;;5092599;28;20084;-72
2023/06/24 05:34:30;;;;;;;9.07;7.75;;;20.10;99.90;;;;;;5092668;28;20051;-72
2023/06/24 05:36:56;;;;;;;12.68;9.07;;;20.20;99.90;;;;;;5090992;28;20047;-72
2023/06/24 05:39:21;;;;;;;12.10;8.05;;;20.40;99.90;;;;;;5092203;28;20032;-72
2023/06/24 05:41:48;;;;;;;12.55;9.27;;;20.60;99.90;;;;;;5090967;28;20168;-72
2023/06/24 05:44:14;;;;;;;13.27;8.48;;;20.90;99.90;;;;;;5091144;28;20044;-71
2023/06/24 05:46:39;;;;;;;11.55;8.05;;;21.10;99.90;;;;;;5092151;28;20089;-71
2023/06/24 05:49:05;;;;;;;13.43;7.10;;;21.40;99.90;;;;;;5092324;28;20040;-72
2023/06/24 05:51:31;;;;;;;9.38;8.15;;;21.50;99.90;;;;;;5090750;28;20044;-72
2023/06/24 05:53:57;;;;;;;12.70;7.53;;;21.90;99.90;;;;;;5092089;28;20097;-72
2023/06/24 05:56:23;;;;;;;10.88;8.23;;;22.00;99.90;;;;;;5090867;28;20049;-72
2023/06/24 05:58:49;;;;;;;9.15;7.95;;;22.30;99.90;;;;;;5090514;28;20420;-72
2023/06/24 06:01:15;;;;;;;11.32;8.35;;;22.50;99.90;;;;;;5073489;28;20047;-72
2023/06/24 06:03:40;;;;;;;9.48;8.25;;;22.70;99.90;;;;;;5090781;28;20069;-71
2023/06/24 06:06:07;;;;;;;10.18;7.95;;;23.10;99.90;;;;;;5091088;28;20036;-71
2023/06/24 06:08:33;;;;;;;9.52;6.65;;;23.40;99.90;;;;;;5090536;28;20407;-71
2023/06/24 06:10:59;;;;;;;11.38;7.32;;;23.70;99.90;;;;;;5090357;28;20051;-71
2023/06/24 06:13:24;;;;;;;9.75;8.15;;;23.90;99.90;;;;;;5092271;28;20043;-71
2023/06/24 06:15:50;;;;;;;8.95;7.38;;;24.10;99.90;;;;;;5091826;28;20050;-71
2023/06/24 06:18:16;;;;;;;8.68;7.38;;;24.40;99.90;;;;;;5091585;28;20127;-72
2023/06/24 06:20:41;;;;;;;11.18;7.60;;;24.60;99.90;;;;;;5091525;28;20397;-72
2023/06/24 06:23:07;;;;;;;10.30;7.43;;;24.70;99.90;;;;;;5091729;28;20036;-72
2023/06/24 06:25:32;;;;;;;8.02;6.85;;;24.90;99.00;;;;;;5092005;28;20535;-72
2023/06/24 06:27:58;;;;;;;9.30;7.15;;;25.20;98.90;;;;;;5090907;28;20035;-72
2023/06/24 06:30:24;;;;;;;7.95;6.75;;;25.50;98.50;;;;;;5071964;28;20040;-72
2023/06/24 06:32:49;;;;;;;9.35;6.38;;;25.60;97.50;;;;;;5070257;28;20051;-72
2023/06/24 06:35:15;;;;;;;8.85;6.22;;;25.80;96.70;;;;;;5069593;28;20511;-72
2023/06/24 06:37:40;;;;;;;8.73;6.40;;;26.00;96.80;;;;;;5069700;28;20044;-72
2023/06/24 06:40:07;;;;;;;9.10;6.35;;;26.10;96.20;;;;;;5069870;28;20134;-72
2023/06/24 06:42:32;;;;;;;8.25;5.65;;;26.20;96.00;;;;;;5070095;28;20116;-72
2023/06/24 06:44:58;;;;;;;6.28;5.63;;;26.00;95.50;;;;;;5070020;28;20115;-72
2023/06/24 06:47:23;;;;;;;7.70;6.38;;;25.80;94.80;;;;;;5069759;28;20457;-72
2023/06/24 06:49:49;;;;;;;8.68;5.40;;;25.70;95.40;;;;;;5069660;28;20071;-72
2023/06/24 06:52:14;;;;;;;7.35;5.70;;;25.40;95.30;;;;;;5069822;28;20048;-72
2023/06/24 06:54:40;;;;;;;7.78;5.22;;;25.20;96.00;;;;;;5080541;28;20038;-72
2023/06/24 06:57:06;;;;;;;9.80;6.20;;;25.00;96.90;;;;;;5078712;28;20078;-72
2023/06/24 06:59:31;;;;;;;8.00;6.38;;;24.80;97.70;;;;;;5078971;28;20035;-72
2023/06/24 07:01:57;;;;;;;6.82;5.32;;;24.60;97.50;;;;;;5083935;28;20067;-72
2023/06/24 07:04:23;;;;;;;6.60;5.10;;;24.60;97.50;;;;;;5090102;28;20036;-72
2023/06/24 07:06:49;;;;;;;7.97;5.70;;;24.40;98.10;;;;;;5072832;28;20040;-71
2023/06/24 07:09:15;;;;;;;8.35;6.00;;;24.40;98.10;;;;;;5089969;28;20093;-72
2023/06/24 07:11:42;;;;;;;10.30;5.75;;;24.30;98.20;;;;;;5090977;28;20040;-72
2023/06/24 07:14:07;;;;;;;7.28;4.97;;;24.30;98.90;;;;;;5091328;28;20070;-71
2023/06/24 07:16:33;;;;;;;7.88;5.97;;;24.40;98.50;;;;;;5089687;28;20040;-72
2023/06/24 07:18:58;;;;;;;8.48;6.55;;;24.50;98.40;;;;;;5089370;28;20036;-71
2023/06/24 07:21:24;;;;;;;8.55;6.18;;;24.60;98.20;;;;;;5090581;28;20036;-72
2023/06/24 07:23:50;;;;;;;8.75;6.10;;;24.70;97.70;;;;;;5091187;28;20388;-71
2023/06/24 07:26:15;;;;;;;10.35;7.63;;;24.70;97.20;;;;;;5089971;28;20396;-72
2023/06/24 07:28:41;;;;;;;10.18;6.97;;;24.70;96.80;;;;;;5089707;28;20123;-72
2023/06/24 07:31:06;;;;;;;9.15;7.18;;;24.90;96.70;;;;;;5090811;28;20056;-71
2023/06/24 07:33:32;;;;;;;8.80;7.40;;;24.70;96.60;;;;;;5089724;28;20044;-72
2023/06/24 07:35:58;;;;;;;8.10;7.18;;;24.70;97.50;;;;;;5089684;28;20040;-71
2023/06/24 07:38:23;;;;;;;9.23;7.18;;;24.70;98.00;;;;;;5090666;28;20079;-71
2023/06/24 07:40:49;;;;;;;8.32;7.35;;;24.80;97.50;;;;;;5089573;28;20036;-70
2023/06/24 07:43:14;;;;;;;11.00;8.77;;;24.90;97.30;;;;;;5089657;28;20040;-73
2023/06/24 07:45:40;;;;;;;9.85;8.30;;;24.70;97.30;;;;;;5090713;28;20495;-72
2023/06/24 07:48:07;;;;;;;10.55;7.60;;;24.40;97.30;;;;;;5091967;28;20449;-72
2023/06/24 07:50:33;;;;;;;10.07;8.30;;;24.50;98.20;;;;;;5093878;28;20572;-73
2023/06/24 07:52:59;;;;;;;10.40;7.60;;;24.50;98.50;;;;;;5094597;28;20484;-73
2023/06/24 07:55:24;;;;;;;13.63;8.57;;;24.60;98.80;;;;;;5093299;28;20135;-72
2023/06/24 07:57:50;;;;;;;12.40;8.98;;;24.70;98.60;;;;;;5092888;28;20453;-73
2023/06/24 08:00:16;;;;;;;9.38;8.35;;;24.70;97.70;;;;;;5093122;28;20046;-73
2023/06/24 08:02:42;;;;;;;11.70;8.30;;;24.90;97.80;;;;;;5093475;28;20035;-73
2023/06/24 08:05:09;;;;;;;11.90;8.25;;;25.10;96.90;;;;;;5093336;28;20418;-73
2023/06/24 08:07:35;;;;;;;12.77;8.60;;;25.10;95.90;;;;;;5092725;28;20040;-73
2023/06/24 08:10:00;;;;;;;10.85;6.85;;;25.20;95.10;;;;;;5092709;28;20132;-73
2023/06/24 08:12:26;;;;;;;11.75;7.40;;;25.30;95.00;;;;;;5093346;28;20130;-73
2023/06/24 08:14:52;;;;;;;12.05;6.22;;;25.50;94.80;;;;;;5092890;28;20050;-73
2023/06/24 08:17:17;;;;;;;8.15;5.70;;;25.40;93.00;;;;;;5092603;28;20040;-73
2023/06/24 08:19:43;;;;;;;7.70;5.15;;;25.60;93.60;;;;;;5092405;28;20074;-72
2023/06/24 08:22:08;;;;;;;9.13;6.03;;;25.80;93.40;;;;;;5093050;28;20135;-73
2023/06/24 08:24:34;;;;;;;10.18;5.65;;;25.70;91.30;;;;;;5092835;28;20550;-73
2023/06/24 08:26:59;;;;;;;10.43;5.18;;;25.80;91.80;;;;;;5093701;28;20043;-73
2023/06/24 08:29:25;;;;;;;7.63;5.40;;;26.00;92.30;;;;;;5092692;28;20174;-72
2023/06/24 08:31:51;;;;;;;7.00;5.00;;;26.10;92.70;;;;;;5092832;28;20078;-73
2023/06/24 08:34:16;;;;;;;9.02;6.00;;;26.20;92.00;;;;;;5092627;28;20073;-73
2023/06/24 08:36:42;;;;;;;8.52;5.75;;;26.30;91.40;;;;;;5093347;28;20090;-73
2023/06/24 08:39:08;;;;;;;8.68;6.28;;;26.20;91.30;;;;;;5092388;28;20040;-73
2023/06/24 08:41:33;;;;;;;8.82;4.95;;;26.00;90.00;;;;;;5092125;28;20051;-73
2023/06/24 08:43:59;;;;;;;8.95;5.07;;;25.70;91.00;;;;;;5093751;28;20028;-73
2023/06/24 08:46:25;;;;;;;7.05;5.28;;;25.50;91.80;;;;;;5092053;28;20093;-73
2023/06/24 08:49:02;;;;;;;9.07;4.93;;;25.60;92.40;;;;;;5091965;28;20487;-73
2023/06/24 08:51:35;;;;;;;6.75;4.50;;;25.60;91.50;;;;;;5092324;28;20051;-73
2023/06/24 08:54:01;;;;;;;5.72;4.00;;;25.90;92.60;;;;;;5092255;28;20123;-72
2023/06/24 08:56:27;;;;;;;6.22;4.53;;;26.00;92.70;;;;;;5092282;28;20131;-73
2023/06/24 08:58:52;;;;;;;4.88;4.10;;;26.10;91.60;;;;;;5091514;28;20131;-72
2023/06/24 09:01:18;;;;;;;5.63;4.00;;;26.00;91.50;;;;;;5091956;28;20574;-73
2023/06/24 09:03:43;;;;;;;7.97;4.97;;;25.90;91.20;;;;;;5091861;28;20042;-73
2023/06/24 09:06:09;;;;;;;6.25;4.55;;;26.10;90.80;;;;;;5091922;28;20039;-73
2023/06/24 09:08:35;;;;;;;6.53;5.28;;;26.10;90.50;;;;;;5091673;28;20047;-73
2023/06/24 09:11:01;;;;;;;5.82;4.32;;;26.20;90.50;;;;;;5091752;28;20079;-73
2023/06/24 09:13:37;;;;;;;6.20;4.53;;;26.30;91.30;;;;;;5092000;28;20503;-73
2023/06/24 09:16:16;;;;;;;7.53;4.70;;;26.40;90.50;;;;;;5091535;28;20128;-73
2023/06/24 09:18:46;;;;;;;6.32;5.32;;;26.40;89.90;;;;;;5092643;28;20628;-72
2023/06/24 09:21:12;;;;;;;8.43;4.72;;;26.40;90.00;;;;;;5091389;28;20040;-73
2023/06/24 09:23:38;;;;;;;9.50;5.15;;;26.60;90.30;;;;;;5091545;28;20056;-73
2023/06/24 09:26:04;;;;;;;6.90;4.55;;;26.60;88.90;;;;;;5091563;28;20040;-73
2023/06/24 09:28:29;;;;;;;7.50;5.75;;;26.60;86.20;;;;;;5091218;28;20108;-73
2023/06/24 09:31:08;;;;;;;8.40;4.88;;;26.80;85.10;;;;;;5091091;28;20044;-73
2023/06/24 09:33:34;;;;;;;7.63;4.60;;;27.00;83.40;;;;;;5092611;28;20071;-73
2023/06/24 09:36:03;;;;;;;6.60;4.22;;;27.30;83.10;;;;;;5091360;28;20499;-73
2023/06/24 09:38:35;;;;;;;7.05;4.75;;;27.50;82.80;;;;;;5090843;28;20051;-73
2023/06/24 09:41:04;;;;;;;6.47;4.53;;;27.60;84.70;;;;;;5090756;28;20051;-73
2023/06/24 09:43:39;;;;;;;6.55;4.70;;;27.70;79.90;;;;;;5091145;28;20488;-72
2023/06/24 09:46:06;;;;;;;5.97;4.30;;;27.60;76.50;;;;;;5091401;28;20067;-73
2023/06/24 09:48:32;;;;;;;8.15;4.65;;;27.60;77.50;;;;;;5090844;28;20042;-73
2023/06/24 09:51:01;;;;;;;6.30;4.10;;;27.30;76.90;;;;;;5090766;28;20039;-73
2023/06/24 09:53:31;;;;;;;5.68;3.88;;;27.10;78.50;;;;;;5091138;28;20079;-73
2023/06/24 09:55:59;;;;;;;5.80;4.35;;;27.00;79.80;;;;;;5074076;28;20044;-73
2023/06/24 09:58:26;;;;;;;6.30;3.92;;;26.70;80.50;;;;;;5090576;28;20040;-73
2023/06/24 10:00:52;;;;;;;6.43;4.15;;;26.70;82.50;;;;;;5090622;28;20580;-73
2023/06/24 10:03:18;;;;;;;7.05;4.05;;;26.80;84.40;;;;;;5092247;28;20074;-73
2023/06/24 10:05:44;;;;;;;6.05;4.03;;;27.00;82.80;;;;;;5090790;28;20043;-73
2023/06/24 10:08:11;;;;;;;5.63;4.10;;;27.40;81.90;;;;;;5090467;28;20036;-73
2023/06/24 10:10:36;;;;;;;6.88;4.47;;;27.90;80.00;;;;;;5089725;28;20050;-73
2023/06/24 10:13:02;;;;;;;5.88;3.88;;;28.30;76.30;;;;;;5092164;28;20115;-73
2023/06/24 10:15:28;;;;;;;6.20;4.22;;;28.30;76.30;;;;;;5090634;28;20079;-73
2023/06/24 10:17:53;;;;;;;5.32;3.83;;;28.30;76.00;;;;;;5090304;28;20036;-73
2023/06/24 10:20:26;;;;;;;4.57;3.67;;;28.40;74.30;;;;;;5090334;28;20040;-73
2023/06/24 10:22:52;;;;;;;6.72;3.90;;;28.60;74.60;;;;;;5090984;28;20043;-73
2023/06/24 10:25:18;;;;;;;6.45;3.58;;;28.60;73.90;;;;;;5090804;28;20040;-73
2023/06/24 10:27:44;;;;;;;4.80;3.25;;;28.30;72.90;;;;;;5090650;28;20499;-73
2023/06/24 10:30:23;;;;;;;3.92;3.25;;;28.20;69.80;;;;;;5090318;28;20507;-73
2023/06/24 10:32:53;;;;;;;4.53;3.08;;;28.10;66.90;;;;;;5090980;28;20494;-73
2023/06/24 10:35:24;;;;;;;4.75;3.35;;;28.10;69.00;;;;;;5090428;28;20047;-73
2023/06/24 10:38:00;;;;;;;5.63;3.13;;;28.10;68.10;;;;;;5090339;28;20044;-73
2023/06/24 10:40:37;;;;;;;6.07;4.00;;;28.30;67.90;;;;;;5090423;28;20454;-73
2023/06/24 10:43:25;;;;;;;3.97;3.10;;;28.40;66.10;;;;;;5073816;28;20052;-73
2023/06/24 10:45:59;;;;;;;5.57;4.57;;;28.30;69.40;;;;;;5090540;28;20077;-72
2023/06/24 10:48:25;;;;;;;6.85;3.80;;;28.20;69.80;;;;;;5090203;28;20036;-73
2023/06/24 10:50:51;;;;;;;5.85;3.45;;;28.30;68.80;;;;;;5073100;28;20093;-73
2023/06/24 10:53:18;;;;;;;6.00;3.65;;;28.30;68.10;;;;;;5090279;28;20042;-73
2023/06/24 10:55:45;;;;;;;4.97;3.70;;;28.30;67.20;;;;;;5090498;28;20097;-73
2023/06/24 10:58:14;;;;;;;4.38;3.08;;;28.30;67.30;;;;;;5089820;28;20044;-73
2023/06/24 11:00:40;;;;;;;4.10;2.90;;;28.50;67.50;;;;;;5090037;28;20462;-73
2023/06/24 11:03:14;;;;;;;4.70;3.15;;;28.40;67.40;;;;;;5090355;28;20400;-73
2023/06/24 11:05:44;;;;;;;5.07;3.30;;;28.50;65.80;;;;;;5090097;28;20080;-73
2023/06/24 11:08:11;;;;;;;3.72;3.00;;;28.60;66.10;;;;;;5090133;28;20048;-73
2023/06/24 11:10:47;;;;;;;5.70;3.55;;;28.40;64.70;;;;;;5089619;28;20040;-73
2023/06/24 11:13:13;;;;;;;6.45;4.00;;;28.20;64.60;;;;;;5073532;28;20048;-73
2023/06/24 11:15:42;;;;;;;4.47;3.45;;;27.90;64.20;;;;;;5090071;28;20509;-73
2023/06/24 11:18:10;;;;;;;4.55;3.08;;;27.50;66.60;;;;;;5091170;28;20043;-73
2023/06/24 11:20:38;;;;;;;4.57;3.08;;;27.60;68.00;;;;;;5090411;28;20042;-74
2023/06/24 11:23:08;;;;;;;5.22;3.47;;;27.60;67.40;;;;;;5095296;28;20506;-73
2023/06/24 11:25:39;;;;;;;4.75;3.00;;;27.60;68.00;;;;;;5095474;28;20047;-73
2023/06/24 11:28:05;;;;;;;4.57;3.55;;;27.40;71.20;;;;;;5093842;28;20563;-74
2023/06/24 11:30:34;;;;;;;4.30;3.28;;;27.20;68.50;;;;;;5093618;28;20075;-73
2023/06/24 11:33:00;;;;;;;4.35;3.22;;;27.10;68.50;;;;;;5094954;28;20407;-73
2023/06/24 11:35:26;;;;;;;4.10;3.35;;;27.10;70.70;;;;;;5094954;28;20032;-73
2023/06/24 11:37:51;;;;;;;4.78;3.30;;;27.20;71.90;;;;;;5094560;28;20072;-73
2023/06/24 11:40:19;;;;;;;5.10;3.45;;;27.40;71.30;;;;;;5093393;28;20514;-74
2023/06/24 11:42:46;;;;;;;4.03;2.90;;;27.60;69.70;;;;;;5093670;28;20072;-74
2023/06/24 11:45:15;;;;;;;4.05;2.63;;;27.80;69.10;;;;;;5076778;28;20044;-74
2023/06/24 11:47:40;;;;;;;4.75;3.17;;;27.90;66.10;;;;;;5076364;28;20562;-73
2023/06/24 11:50:07;;;;;;;3.42;3.00;;;28.00;65.60;;;;;;5093228;28;20135;-73
2023/06/24 11:52:38;;;;;;;6.97;3.50;;;28.00;64.60;;;;;;5093710;28;20503;-74
2023/06/24 11:55:04;;;;;;;4.05;3.00;;;28.10;64.90;;;;;;5094838;28;20040;-73
2023/06/24 11:57:53;;;;;;;4.32;3.28;;;28.10;64.80;;;;;;5093301;28;20040;-73
2023/06/24 12:00:29;;;;;;;4.95;3.42;;;28.10;63.20;;;;;;5092928;28;20032;-73
2023/06/24 12:03:00;;;;;;;3.38;3.00;;;28.10;64.50;;;;;;5094501;28;20385;-72
2023/06/24 12:05:31;;;;;;;5.57;3.10;;;27.80;64.20;;;;;;5094660;28;20419;-72
2023/06/24 12:07:58;;;;;;;5.97;3.40;;;27.80;66.90;;;;;;5094314;28;20515;-72
2023/06/24 12:10:24;;;;;;;5.32;3.75;;;27.70;67.70;;;;;;5094228;28;20040;-72
2023/06/24 12:12:50;;;;;;;4.47;3.42;;;27.70;70.70;;;;;;5094478;28;20093;-72
2023/06/24 12:15:16;;;;;;;4.10;3.17;;;27.70;70.50;;;;;;5092809;28;20043;-72
2023/06/24 12:17:42;;;;;;;3.42;2.75;;;27.80;72.70;;;;;;5092839;28;20043;-72
2023/06/24 12:20:08;;;;;;;5.40;3.25;;;27.70;70.80;;;;;;5092827;28;20039;-73
2023/06/24 12:22:34;;;;;;;5.30;3.13;;;27.60;71.90;;;;;;5092957;28;20040;-72
2023/06/24 12:24:59;;;;;;;5.43;3.78;;;27.60;72.60;;;;;;5093060;28;20067;-73
2023/06/24 12:27:25;;;;;;;4.35;3.20;;;27.60;72.30;;;;;;5092861;28;20035;-73
2023/06/24 12:29:50;;;;;;;4.80;3.50;;;27.40;69.40;;;;;;5093653;28;20079;-73
2023/06/24 12:32:16;;;;;;;6.68;3.28;;;27.30;71.30;;;;;;5091984;28;20032;-73
2023/06/24 12:34:41;;;;;;;4.03;3.22;;;27.20;73.20;;;;;;5092702;28;20468;-72
2023/06/24 12:37:07;;;;;;;4.93;3.28;;;27.00;72.30;;;;;;5092341;28;20043;-73
2023/06/24 12:39:32;;;;;;;5.50;3.30;;;26.90;72.80;;;;;;5092091;28;20040;-73
2023/06/24 12:41:58;;;;;;;5.90;3.50;;;26.90;76.00;;;;;;5093800;28;20044;-72